Time;durP1;ratioP1;P1;durP2;ratioP2;P2;SDS_P1;SDS_P2;PMS_P1;PMS_P2;Temp;Humidity;BMP_temperature;BMP_pressure;BME280_temperature;BME280_humidity;BME280_pressure;Samples;Min_cycle;Max_cycle;Signal;HPM_P1;HPM_P2
2022/01/27 00:03:12;;;;;;;41.27;20.90;;;2.70;99.90;;;;;;4974987;28;20196;-77
2022/01/27 00:05:40;;;;;;;35.08;16.63;;;2.70;99.90;;;;;;4975225;28;20187;-78
2022/01/27 00:13:10;;;;;;;36.25;19.67;;;2.70;99.90;;;;;;4974871;28;20615;-77
2022/01/27 00:15:38;;;;;;;37.60;20.17;;;2.60;99.90;;;;;;4975240;28;21045;-77
2022/01/27 00:18:12;;;;;;;45.80;23.13;;;2.60;99.90;;;;;;4975259;28;20197;-77
2022/01/27 00:20:37;;;;;;;45.65;23.00;;;2.60;99.90;;;;;;4975080;28;20214;-76
2022/01/27 00:23:03;;;;;;;42.40;19.50;;;2.60;99.90;;;;;;4973495;28;20608;-76
2022/01/27 00:25:29;;;;;;;38.73;18.97;;;2.60;99.90;;;;;;4974859;28;20173;-78
2022/01/27 00:27:54;;;;;;;39.97;19.43;;;2.50;99.90;;;;;;4974862;28;20496;-77
2022/01/27 00:30:20;;;;;;;49.60;22.47;;;2.50;99.90;;;;;;4974565;28;20212;-77
2022/01/27 00:32:46;;;;;;;45.73;22.47;;;2.50;99.90;;;;;;4974388;28;20277;-77
2022/01/27 00:35:11;;;;;;;42.57;21.03;;;2.40;99.90;;;;;;4974776;28;20416;-77
2022/01/27 00:37:37;;;;;;;33.77;17.80;;;2.40;99.90;;;;;;4974704;28;20572;-77
2022/01/27 00:40:05;;;;;;;41.10;19.57;;;2.40;99.90;;;;;;4974650;28;20482;-77
2022/01/27 00:42:31;;;;;;;36.92;18.88;;;2.40;99.90;;;;;;4974312;28;20215;-77
2022/01/27 00:44:58;;;;;;;48.63;19.38;;;2.40;99.90;;;;;;4974468;28;20249;-76
2022/01/27 00:47:24;;;;;;;45.03;19.92;;;2.40;99.90;;;;;;4974589;28;20184;-79
2022/01/27 00:49:49;;;;;;;50.47;22.70;;;2.30;99.90;;;;;;4973066;28;20186;-77
2022/01/27 00:52:23;;;;;;;54.77;20.57;;;2.40;99.90;;;;;;4974046;28;20479;-77
2022/01/27 00:54:50;;;;;;;52.40;21.38;;;2.30;99.90;;;;;;4974551;28;20183;-79
2022/01/27 00:57:33;;;;;;;44.78;21.13;;;2.40;99.90;;;;;;4974500;28;20181;-76
2022/01/27 01:00:02;;;;;;;47.40;19.50;;;2.30;99.90;;;;;;4974251;28;20194;-77
2022/01/27 01:02:43;;;;;;;42.28;18.10;;;2.30;99.90;;;;;;4973987;28;20207;-79
2022/01/27 01:07:39;;;;;;;49.90;20.33;;;2.20;99.90;;;;;;4974825;28;20188;-78
2022/01/27 01:13:38;;;;;;;51.17;22.15;;;2.30;99.90;;;;;;4973689;28;20287;-78
2022/01/27 01:15:35;;;;;;;47.53;20.92;;;2.30;99.90;;;;;;4974286;28;20562;-78
2022/01/27 01:33:46;;;;;;;42.80;17.33;;;2.40;99.90;;;;;;4974154;28;20668;-79
2022/01/27 01:36:26;;;;;;;44.33;18.58;;;2.30;99.90;;;;;;4973833;28;20191;-78
2022/01/27 01:38:51;;;;;;;42.92;17.38;;;2.20;99.90;;;;;;4974317;28;20183;-78
2022/01/27 01:41:17;;;;;;;46.33;19.00;;;2.20;99.90;;;;;;4974888;28;20193;-78
2022/01/27 01:43:42;;;;;;;53.97;19.03;;;2.30;99.90;;;;;;4977662;28;20254;-79
2022/01/27 01:46:08;;;;;;;45.70;19.30;;;2.30;99.90;;;;;;4977797;28;20641;-79
2022/01/27 01:48:34;;;;;;;43.73;18.30;;;2.30;99.90;;;;;;4977686;28;20257;-78
2022/01/27 01:51:02;;;;;;;44.80;17.87;;;2.30;99.90;;;;;;4977198;28;20498;-78
2022/01/27 01:53:28;;;;;;;35.53;15.57;;;2.40;99.90;;;;;;4977598;28;20254;-80
2022/01/27 01:55:54;;;;;;;40.38;16.73;;;2.40;99.90;;;;;;4977492;28;20270;-79
2022/01/27 01:58:20;;;;;;;43.63;17.73;;;2.40;99.90;;;;;;4977699;28;20686;-79
2022/01/27 02:00:46;;;;;;;36.85;18.23;;;2.40;99.90;;;;;;4977109;28;20202;-78
2022/01/27 02:03:12;;;;;;;38.53;15.70;;;2.40;99.90;;;;;;4977423;28;20786;-78
2022/01/27 02:05:45;;;;;;;42.60;18.80;;;2.40;99.90;;;;;;4977576;28;20495;-78
2022/01/27 02:19:18;;;;;;;31.90;16.33;;;2.50;99.90;;;;;;4977279;28;20678;-78
2022/01/27 02:22:06;;;;;;;42.72;19.38;;;2.50;99.90;;;;;;4976896;28;20215;-78
2022/01/27 02:24:34;;;;;;;45.60;18.40;;;2.50;99.90;;;;;;4976825;28;20190;-78
2022/01/27 02:27:00;;;;;;;40.67;18.75;;;2.50;99.90;;;;;;4977312;28;20181;-78
2022/01/27 02:29:27;;;;;;;40.65;19.95;;;2.50;99.90;;;;;;4976902;28;20185;-80
2022/01/27 02:31:54;;;;;;;34.67;16.85;;;2.50;99.90;;;;;;4976104;28;20764;-78
2022/01/27 02:34:20;;;;;;;40.15;18.83;;;2.40;99.90;;;;;;4976927;28;20271;-78
2022/01/27 02:36:46;;;;;;;34.50;15.90;;;2.40;99.90;;;;;;4976869;28;20688;-79
2022/01/27 02:39:14;;;;;;;37.17;15.82;;;2.40;99.90;;;;;;4975515;28;20797;-77
2022/01/27 02:42:00;;;;;;;41.08;19.42;;;2.40;99.90;;;;;;4975193;28;20206;-78
2022/01/27 02:44:44;;;;;;;42.42;18.25;;;2.40;99.90;;;;;;4976472;28;20257;-79
2022/01/27 02:47:11;;;;;;;35.78;15.57;;;2.40;99.90;;;;;;4975505;28;20185;-78
2022/01/27 02:49:36;;;;;;;40.72;17.50;;;2.30;99.90;;;;;;4976663;28;20241;-78
2022/01/27 02:52:02;;;;;;;38.00;18.37;;;2.40;99.90;;;;;;4974228;28;20219;-78
2022/01/27 02:54:28;;;;;;;34.85;15.48;;;2.30;99.90;;;;;;4959008;28;20601;-78
2022/01/27 02:56:53;;;;;;;29.17;11.70;;;2.40;99.90;;;;;;4975122;28;20176;-78
2022/01/27 02:59:20;;;;;;;36.40;15.20;;;2.30;99.90;;;;;;4976202;28;20195;-78
2022/01/27 03:01:48;;;;;;;31.05;13.55;;;2.30;99.90;;;;;;4976171;28;20286;-77
2022/01/27 03:04:15;;;;;;;37.97;15.40;;;2.40;99.90;;;;;;4976382;28;20180;-78
2022/01/27 03:06:42;;;;;;;39.30;16.83;;;2.30;99.90;;;;;;4976268;28;20177;-78
2022/01/27 03:09:07;;;;;;;37.13;15.88;;;2.30;99.90;;;;;;4976304;28;20180;-77
2022/01/27 03:11:39;;;;;;;35.83;17.00;;;2.40;99.90;;;;;;4975853;28;20639;-77
2022/01/27 03:14:05;;;;;;;37.65;15.70;;;2.40;99.90;;;;;;4976163;28;20258;-77
2022/01/27 03:16:31;;;;;;;37.20;15.45;;;2.40;99.90;;;;;;4976359;28;20283;-78
2022/01/27 03:18:56;;;;;;;36.37;17.30;;;2.50;99.90;;;;;;4976151;28;20212;-77
2022/01/27 03:21:22;;;;;;;33.10;15.33;;;2.50;99.90;;;;;;4974672;28;20288;-79
2022/01/27 03:23:47;;;;;;;35.27;16.70;;;2.60;99.90;;;;;;4976103;28;20184;-78
2022/01/27 03:26:14;;;;;;;38.07;17.70;;;2.60;99.90;;;;;;4958432;28;20240;-79
2022/01/27 03:28:39;;;;;;;35.60;16.55;;;2.70;99.90;;;;;;4976011;28;20237;-80
2022/01/27 03:31:05;;;;;;;36.97;15.37;;;2.60;99.90;;;;;;4974082;28;20606;-79
2022/01/27 03:33:30;;;;;;;35.90;16.70;;;2.60;99.90;;;;;;4975877;28;20240;-78
2022/01/27 03:35:56;;;;;;;27.50;12.50;;;2.60;99.90;;;;;;4974826;28;20705;-78
2022/01/27 03:38:22;;;;;;;34.03;16.43;;;2.60;99.90;;;;;;4974588;28;20684;-78
2022/01/27 03:40:47;;;;;;;33.87;14.57;;;2.60;99.90;;;;;;4975344;28;20242;-78
2022/01/27 03:43:13;;;;;;;32.93;14.80;;;2.60;99.90;;;;;;4975266;28;20208;-77
2022/01/27 03:45:39;;;;;;;28.97;15.67;;;2.60;99.90;;;;;;4975475;28;20179;-78
2022/01/27 03:48:05;;;;;;;28.90;15.17;;;2.60;99.90;;;;;;4975546;28;20215;-78
2022/01/27 03:50:31;;;;;;;36.72;16.77;;;2.60;99.90;;;;;;4975439;28;20444;-78
2022/01/27 03:52:57;;;;;;;31.55;16.88;;;2.70;99.90;;;;;;4974628;28;20219;-78
2022/01/27 03:55:23;;;;;;;34.57;14.17;;;2.70;99.90;;;;;;4975250;28;20263;-78
2022/01/27 03:57:49;;;;;;;41.97;16.90;;;2.70;99.90;;;;;;4975359;28;20272;-78
2022/01/27 04:00:15;;;;;;;37.57;14.80;;;2.80;99.90;;;;;;4975357;28;20416;-77
2022/01/27 04:02:52;;;;;;;30.85;15.10;;;2.80;99.90;;;;;;4974884;28;20363;-78
2022/01/27 04:05:19;;;;;;;30.80;14.23;;;2.80;99.90;;;;;;4974895;28;20310;-78
2022/01/27 04:07:45;;;;;;;31.20;15.50;;;2.80;99.90;;;;;;4975436;28;20181;-78
2022/01/27 04:10:11;;;;;;;34.87;16.53;;;2.90;99.90;;;;;;4975263;28;20187;-77
2022/01/27 04:12:37;;;;;;;35.10;16.00;;;2.90;99.90;;;;;;4974901;28;20991;-78
2022/01/27 04:15:03;;;;;;;26.43;14.00;;;2.90;99.90;;;;;;4975156;28;20459;-78
2022/01/27 04:17:29;;;;;;;32.42;17.30;;;2.90;99.90;;;;;;4974943;28;20280;-78
2022/01/27 04:19:54;;;;;;;30.23;15.33;;;3.00;99.90;;;;;;4974906;28;20208;-78
2022/01/27 04:22:20;;;;;;;24.30;11.53;;;3.10;99.90;;;;;;4973126;28;20212;-78
2022/01/27 04:24:46;;;;;;;35.73;16.90;;;3.10;99.90;;;;;;4975039;28;20259;-78
2022/01/27 04:27:18;;;;;;;33.23;15.97;;;3.10;99.90;;;;;;4975132;28;20203;-79
2022/01/27 04:29:43;;;;;;;26.45;13.85;;;3.20;99.90;;;;;;4975058;28;20191;-78
2022/01/27 04:32:12;;;;;;;24.60;13.57;;;3.30;99.90;;;;;;4973123;28;20235;-78
2022/01/27 04:34:40;;;;;;;31.33;15.77;;;3.30;99.90;;;;;;4973775;28;20201;-78
2022/01/27 04:37:07;;;;;;;35.60;16.05;;;3.30;99.90;;;;;;4974653;28;20260;-78
2022/01/27 04:39:41;;;;;;;35.15;16.20;;;3.40;99.90;;;;;;4974732;28;20200;-78
2022/01/27 04:42:17;;;;;;;33.17;17.20;;;3.40;99.90;;;;;;4973315;28;20673;-78
2022/01/27 04:44:58;;;;;;;34.35;16.25;;;3.40;99.90;;;;;;4974433;28;20200;-78
2022/01/27 04:47:31;;;;;;;30.05;15.45;;;3.50;99.90;;;;;;4959235;28;20193;-78
2022/01/27 04:49:57;;;;;;;35.95;16.60;;;3.50;99.90;;;;;;4974635;28;20272;-78
2022/01/27 04:52:24;;;;;;;35.28;16.77;;;3.50;99.90;;;;;;4973842;28;20691;-79
2022/01/27 04:55:06;;;;;;;31.95;15.98;;;3.60;99.90;;;;;;4974530;28;20185;-78
2022/01/27 04:57:33;;;;;;;39.53;15.90;;;3.60;99.90;;;;;;4973464;28;20552;-78
2022/01/27 04:59:59;;;;;;;32.55;17.38;;;3.60;99.90;;;;;;4973155;28;20217;-77
2022/01/27 05:05:17;;;;;;;30.63;16.92;;;3.70;99.90;;;;;;4974746;28;20675;-79
2022/01/27 05:07:42;;;;;;;33.53;17.10;;;3.80;99.90;;;;;;4974360;28;20728;-79
2022/01/27 05:10:14;;;;;;;29.00;15.67;;;3.90;99.90;;;;;;4973189;28;20267;-78
2022/01/27 05:12:49;;;;;;;33.45;16.70;;;4.00;99.90;;;;;;4974097;28;20217;-78
2022/01/27 05:15:15;;;;;;;27.58;15.50;;;4.10;99.90;;;;;;4974248;28;20302;-79
2022/01/27 05:17:40;;;;;;;29.93;16.03;;;4.10;99.90;;;;;;4978301;28;20211;-78
2022/01/27 05:20:07;;;;;;;36.40;16.40;;;4.20;99.90;;;;;;4978443;28;20183;-79
2022/01/27 05:22:32;;;;;;;37.95;16.25;;;4.30;99.90;;;;;;4977892;28;20279;-77
2022/01/27 05:24:58;;;;;;;27.90;16.60;;;4.30;99.90;;;;;;4978397;28;20217;-78
2022/01/27 05:27:24;;;;;;;27.83;15.93;;;4.40;99.90;;;;;;4976967;28;20626;-78
2022/01/27 05:29:52;;;;;;;26.45;14.23;;;4.50;99.90;;;;;;4977743;28;20188;-78
2022/01/27 05:32:20;;;;;;;31.40;15.13;;;4.40;99.90;;;;;;4976409;28;20261;-78
2022/01/27 05:34:48;;;;;;;36.83;16.45;;;4.40;99.90;;;;;;4978032;28;20260;-78
2022/01/27 05:37:13;;;;;;;29.85;15.75;;;4.40;99.90;;;;;;4977965;28;20194;-78
2022/01/27 05:39:39;;;;;;;28.00;14.90;;;4.50;99.90;;;;;;4978080;28;20301;-79
2022/01/27 05:42:05;;;;;;;26.40;13.47;;;4.50;99.90;;;;;;4977513;28;20741;-78
2022/01/27 05:44:33;;;;;;;25.37;13.70;;;4.60;99.90;;;;;;4977829;28;20204;-78
2022/01/27 05:46:59;;;;;;;31.60;15.60;;;4.60;99.90;;;;;;4978035;28;20862;-77
2022/01/27 05:49:24;;;;;;;28.20;14.30;;;4.70;99.90;;;;;;4977901;28;20264;-77
2022/01/27 05:51:50;;;;;;;28.90;14.57;;;4.70;99.90;;;;;;4959705;28;20234;-79
2022/01/27 05:54:15;;;;;;;34.73;15.83;;;4.60;99.90;;;;;;4977589;28;20232;-78
2022/01/27 05:56:41;;;;;;;29.53;14.13;;;4.70;99.90;;;;;;4977670;28;20657;-78
2022/01/27 05:59:07;;;;;;;30.60;12.60;;;4.70;99.90;;;;;;4977557;28;20645;-77
2022/01/27 06:01:33;;;;;;;26.80;14.57;;;4.80;99.90;;;;;;4977181;28;20208;-77
2022/01/27 06:03:58;;;;;;;30.07;14.80;;;4.90;99.90;;;;;;4977503;28;20184;-78
2022/01/27 06:06:24;;;;;;;24.20;13.10;;;4.80;99.90;;;;;;4977354;28;20305;-78
2022/01/27 06:08:49;;;;;;;27.00;14.33;;;4.90;99.90;;;;;;4977521;28;20181;-78
2022/01/27 06:11:15;;;;;;;24.07;13.40;;;5.00;99.90;;;;;;4976905;28;20209;-78
2022/01/27 06:13:40;;;;;;;30.57;16.63;;;5.10;99.90;;;;;;4977401;28;20186;-77
2022/01/27 06:16:09;;;;;;;30.90;15.80;;;5.10;99.90;;;;;;4977401;28;20668;-78
2022/01/27 06:18:35;;;;;;;33.17;14.90;;;4.80;99.90;;;;;;4977677;28;20260;-77
2022/01/27 06:21:03;;;;;;;19.45;11.20;;;5.10;99.90;;;;;;4976838;28;20543;-78
2022/01/27 06:23:29;;;;;;;21.50;12.68;;;5.10;99.90;;;;;;4977226;28;20522;-78
2022/01/27 06:25:55;;;;;;;27.00;14.90;;;5.10;99.90;;;;;;4975803;28;20196;-77
2022/01/27 06:28:20;;;;;;;26.07;13.33;;;5.10;99.90;;;;;;4977295;28;20597;-78
2022/01/27 06:30:46;;;;;;;25.40;13.80;;;5.10;99.90;;;;;;4976401;28;20184;-78
2022/01/27 06:33:12;;;;;;;24.93;14.20;;;5.00;99.90;;;;;;4976507;28;20256;-78
2022/01/27 06:35:38;;;;;;;27.00;15.27;;;5.00;99.90;;;;;;4976953;28;20220;-79
2022/01/27 06:38:04;;;;;;;29.77;14.15;;;5.10;99.90;;;;;;4976942;28;20419;-78
2022/01/27 06:40:30;;;;;;;27.77;15.52;;;5.20;99.90;;;;;;4976692;28;20173;-78
2022/01/27 06:42:56;;;;;;;26.90;14.07;;;5.10;99.90;;;;;;4975280;28;20633;-79
2022/01/27 06:45:21;;;;;;;32.33;14.80;;;5.00;99.90;;;;;;4976446;28;20690;-78
2022/01/27 06:47:47;;;;;;;27.67;14.30;;;5.00;99.90;;;;;;4976750;28;20191;-79
2022/01/27 06:50:13;;;;;;;26.47;13.03;;;5.00;99.90;;;;;;4976646;28;21037;-78
2022/01/27 06:52:41;;;;;;;24.10;13.20;;;5.10;99.90;;;;;;4976284;28;20267;-78
2022/01/27 06:55:07;;;;;;;27.70;14.48;;;5.10;99.90;;;;;;4975644;28;20184;-79
2022/01/27 06:57:33;;;;;;;25.52;12.07;;;5.20;99.90;;;;;;4976600;28;20188;-79
2022/01/27 06:59:59;;;;;;;25.85;13.43;;;5.10;99.90;;;;;;4975416;28;20176;-78
2022/01/27 07:02:25;;;;;;;29.92;14.55;;;5.10;99.90;;;;;;4974989;28;20208;-78
2022/01/27 07:04:51;;;;;;;28.20;14.87;;;5.20;99.90;;;;;;4976418;28;20259;-78
2022/01/27 07:07:19;;;;;;;24.87;13.60;;;5.10;99.90;;;;;;4975234;28;20653;-80
2022/01/27 07:09:45;;;;;;;33.38;16.00;;;5.20;99.90;;;;;;4976495;28;20181;-78
2022/01/27 07:14:40;;;;;;;27.85;13.35;;;5.20;99.90;;;;;;4993146;28;20567;-80
2022/01/27 07:17:06;;;;;;;25.27;14.10;;;5.20;99.90;;;;;;4995476;28;20195;-81
2022/01/27 07:19:32;;;;;;;33.50;15.23;;;5.20;99.90;;;;;;4996606;28;20208;-79
2022/01/27 07:21:58;;;;;;;27.07;14.50;;;5.20;99.90;;;;;;4988111;28;20664;-78
2022/01/27 07:24:24;;;;;;;26.70;15.43;;;5.20;99.90;;;;;;4976394;28;20176;-77
2022/01/27 07:26:49;;;;;;;31.23;14.33;;;5.30;99.90;;;;;;4974781;28;20195;-77
2022/01/27 07:29:15;;;;;;;26.80;15.50;;;5.30;99.90;;;;;;4974865;28;20220;-77
2022/01/27 07:31:41;;;;;;;30.13;14.87;;;5.40;99.90;;;;;;4975668;28;20323;-79
2022/01/27 07:34:06;;;;;;;30.03;14.67;;;5.40;99.90;;;;;;4976034;28;20191;-79
2022/01/27 07:36:32;;;;;;;26.97;13.13;;;5.40;99.90;;;;;;4975933;28;20191;-78
2022/01/27 07:38:59;;;;;;;36.30;12.67;;;5.50;99.90;;;;;;4975070;28;20251;-78
2022/01/27 07:41:24;;;;;;;26.25;14.18;;;5.40;99.90;;;;;;4975575;28;20548;-79
2022/01/27 07:43:50;;;;;;;25.90;14.13;;;5.40;99.90;;;;;;4975938;28;20269;-77
2022/01/27 07:46:16;;;;;;;20.63;11.37;;;5.40;99.90;;;;;;4975804;28;20189;-78
2022/01/27 07:48:42;;;;;;;33.43;16.67;;;5.40;99.90;;;;;;4974562;28;20420;-78
2022/01/27 07:51:09;;;;;;;29.50;15.45;;;5.40;99.90;;;;;;4975105;28;20176;-79
2022/01/27 07:53:36;;;;;;;24.58;13.05;;;5.50;99.90;;;;;;4975671;28;20541;-78
2022/01/27 07:56:02;;;;;;;24.77;13.55;;;5.50;99.90;;;;;;4975561;28;20181;-78
2022/01/27 07:58:30;;;;;;;24.48;13.90;;;5.60;99.90;;;;;;4974199;28;20177;-77
2022/01/27 08:00:56;;;;;;;24.38;13.55;;;5.60;99.90;;;;;;4975203;28;20191;-77
2022/01/27 08:03:22;;;;;;;24.95;13.27;;;5.70;99.90;;;;;;4975086;28;20200;-80
2022/01/27 08:05:48;;;;;;;24.30;14.30;;;5.70;99.90;;;;;;4974422;28;20178;-77
2022/01/27 08:08:13;;;;;;;30.00;15.80;;;5.70;99.90;;;;;;4975315;28;20224;-78
2022/01/27 08:10:39;;;;;;;28.93;14.50;;;5.70;99.90;;;;;;4975242;28;20574;-78
2022/01/27 08:13:06;;;;;;;25.20;13.43;;;5.80;99.90;;;;;;4973735;28;20221;-77
2022/01/27 08:15:32;;;;;;;23.60;12.95;;;5.80;99.90;;;;;;4975314;28;20173;-78
2022/01/27 08:17:58;;;;;;;24.80;12.43;;;5.90;99.90;;;;;;4957818;28;20335;-78
2022/01/27 08:20:23;;;;;;;23.98;12.50;;;5.80;99.90;;;;;;4970596;28;20619;-80
2022/01/27 08:22:51;;;;;;;27.47;12.10;;;5.90;99.90;;;;;;4965164;28;20212;-77
2022/01/27 08:25:22;;;;;;;27.27;14.27;;;5.90;99.90;;;;;;4954321;28;20670;-77
2022/01/27 08:27:50;;;;;;;30.15;13.85;;;5.90;99.90;;;;;;4955722;28;20240;-78
2022/01/27 08:30:18;;;;;;;25.88;14.52;;;6.00;99.90;;;;;;4955721;28;20237;-77
2022/01/27 08:32:47;;;;;;;29.75;13.75;;;6.00;99.90;;;;;;4955305;28;20209;-77
2022/01/27 08:35:15;;;;;;;27.83;13.93;;;6.00;99.90;;;;;;4955560;28;20203;-78
2022/01/27 08:37:41;;;;;;;23.85;12.63;;;6.00;99.90;;;;;;4955533;28;20177;-78
2022/01/27 08:40:09;;;;;;;23.77;13.03;;;5.90;99.90;;;;;;4955275;28;20538;-78
2022/01/27 08:42:34;;;;;;;27.55;14.38;;;5.90;99.90;;;;;;4955143;28;20209;-77
2022/01/27 08:45:00;;;;;;;31.73;14.73;;;5.90;99.90;;;;;;4954356;29;20189;-77
2022/01/27 08:47:26;;;;;;;25.73;12.60;;;5.90;99.90;;;;;;4955415;28;20177;-78
2022/01/27 08:49:52;;;;;;;29.92;13.02;;;5.90;99.90;;;;;;4955062;28;20241;-77
2022/01/27 08:52:18;;;;;;;32.20;14.07;;;5.90;99.90;;;;;;4953207;29;20628;-79
2022/01/27 08:54:43;;;;;;;26.17;13.00;;;6.00;99.90;;;;;;4955399;29;20209;-79
2022/01/27 08:57:11;;;;;;;25.93;13.53;;;6.00;99.90;;;;;;4955196;28;20658;-80
2022/01/27 08:59:37;;;;;;;23.08;13.88;;;6.00;99.90;;;;;;4954931;28;20666;-79
2022/01/27 09:02:03;;;;;;;23.43;11.50;;;5.90;99.90;;;;;;4953693;29;20345;-79
2022/01/27 09:04:28;;;;;;;26.40;14.30;;;5.80;99.90;;;;;;4955288;28;20177;-79
2022/01/27 09:06:54;;;;;;;26.90;12.80;;;5.80;99.90;;;;;;4955414;29;20596;-80
2022/01/27 09:09:19;;;;;;;28.00;14.60;;;5.80;99.90;;;;;;4953898;29;20181;-79
2022/01/27 09:11:46;;;;;;;30.50;15.67;;;5.70;99.90;;;;;;4953328;29;20284;-78
2022/01/27 09:14:14;;;;;;;21.73;12.85;;;5.80;99.90;;;;;;4955242;28;20665;-78
2022/01/27 09:16:40;;;;;;;27.45;14.02;;;5.70;99.90;;;;;;4955164;28;20177;-79
2022/01/27 09:19:07;;;;;;;24.20;12.93;;;5.70;99.90;;;;;;4955032;28;20271;-79
2022/01/27 09:21:42;;;;;;;40.20;14.32;;;5.70;99.90;;;;;;4954618;28;20198;-78
2022/01/27 09:24:14;;;;;;;31.02;14.07;;;5.60;99.90;;;;;;4955286;28;20177;-79
2022/01/27 09:26:49;;;;;;;34.15;16.42;;;5.60;99.90;;;;;;4953842;29;20213;-77
2022/01/27 09:29:19;;;;;;;26.50;14.18;;;5.60;99.90;;;;;;4954106;29;20280;-79
2022/01/27 09:31:47;;;;;;;32.80;16.67;;;5.50;99.90;;;;;;4954370;28;20253;-79
2022/01/27 09:34:13;;;;;;;33.58;14.75;;;5.40;99.90;;;;;;4955078;28;20177;-79
2022/01/27 09:36:38;;;;;;;30.23;15.00;;;5.40;99.90;;;;;;4954985;29;20705;-79
2022/01/27 09:39:04;;;;;;;32.63;16.40;;;5.30;99.90;;;;;;4954845;29;20177;-78
2022/01/27 09:41:36;;;;;;;31.37;13.20;;;5.30;99.90;;;;;;4953216;28;20236;-79
2022/01/27 09:44:03;;;;;;;32.75;14.70;;;5.30;99.90;;;;;;4953616;29;20204;-78
2022/01/27 09:46:28;;;;;;;35.55;16.90;;;5.20;99.90;;;;;;4954821;28;20185;-77
2022/01/27 09:48:55;;;;;;;40.03;16.93;;;5.20;99.90;;;;;;4954955;29;20272;-78
2022/01/27 09:53:51;;;;;;;31.73;15.37;;;5.30;99.90;;;;;;4955008;29;20672;-78
2022/01/27 09:56:17;;;;;;;31.48;16.67;;;5.30;99.90;;;;;;4954705;28;20622;-77
2022/01/27 09:58:43;;;;;;;28.05;16.63;;;5.30;99.90;;;;;;4954722;28;20272;-78
2022/01/27 10:01:09;;;;;;;41.40;18.55;;;5.20;99.90;;;;;;4954241;28;20173;-79
2022/01/27 10:03:55;;;;;;;40.10;17.83;;;5.20;99.90;;;;;;4957943;29;20256;-78
2022/01/27 10:06:27;;;;;;;31.23;17.77;;;5.20;99.90;;;;;;4958242;28;20536;-77
2022/01/27 10:09:17;;;;;;;29.60;15.30;;;5.30;99.90;;;;;;4958336;28;20178;-78
2022/01/27 10:11:48;;;;;;;30.10;15.80;;;5.30;99.90;;;;;;4957842;28;20263;-78
2022/01/27 10:14:22;;;;;;;32.97;18.13;;;5.30;99.90;;;;;;4957826;28;20562;-78
2022/01/27 10:16:51;;;;;;;33.97;17.58;;;5.30;99.90;;;;;;4956973;29;20697;-76
2022/01/27 10:19:17;;;;;;;31.38;15.70;;;5.30;99.90;;;;;;4956739;29;20182;-78
2022/01/27 10:21:43;;;;;;;28.70;14.50;;;5.30;99.90;;;;;;4956296;29;20216;-78
2022/01/27 10:24:27;;;;;;;31.07;16.60;;;5.30;99.90;;;;;;4957927;28;20175;-77
2022/01/27 10:27:17;;;;;;;28.75;15.13;;;5.30;99.90;;;;;;4958054;28;20405;-79
2022/01/27 10:30:01;;;;;;;22.73;13.90;;;5.30;99.90;;;;;;4957943;28;20776;-78
2022/01/27 10:32:38;;;;;;;30.23;16.30;;;5.40;99.90;;;;;;4957626;28;20220;-79
2022/01/27 10:35:05;;;;;;;26.63;15.27;;;5.30;99.90;;;;;;4957967;28;20173;-79
2022/01/27 10:37:53;;;;;;;28.25;14.02;;;5.30;99.90;;;;;;4957835;28;20240;-78
2022/01/27 10:40:30;;;;;;;29.13;15.98;;;5.30;99.90;;;;;;4957720;28;20165;-78
2022/01/27 10:43:07;;;;;;;26.13;15.20;;;5.40;99.90;;;;;;4960600;28;20205;-79
2022/01/27 10:45:34;;;;;;;30.17;15.38;;;5.30;99.90;;;;;;4969541;28;20184;-79
2022/01/27 10:48:22;;;;;;;29.92;14.90;;;5.40;99.90;;;;;;4963537;28;20180;-79
2022/01/27 10:51:03;;;;;;;25.33;14.13;;;5.40;99.90;;;;;;4967590;28;20208;-78
2022/01/27 10:54:05;;;;;;;23.35;14.18;;;5.40;99.90;;;;;;4957468;28;20264;-79
2022/01/27 10:56:36;;;;;;;27.60;14.70;;;5.50;99.90;;;;;;4957580;28;20205;-79
2022/01/27 10:59:21;;;;;;;22.58;14.65;;;5.60;99.90;;;;;;4960024;28;20209;-79
2022/01/27 11:01:51;;;;;;;26.00;14.70;;;5.60;99.90;;;;;;4957035;29;20266;-77
2022/01/27 11:04:19;;;;;;;25.60;14.45;;;5.60;99.90;;;;;;4957138;28;20544;-80
2022/01/27 11:06:57;;;;;;;18.00;11.50;;;5.60;99.90;;;;;;4957030;28;20229;-78
2022/01/27 11:09:23;;;;;;;16.70;11.10;;;5.60;99.90;;;;;;4957137;28;20191;-79
2022/01/27 11:11:52;;;;;;;26.13;14.30;;;5.60;99.90;;;;;;4956608;28;20217;-81
2022/01/27 11:14:19;;;;;;;21.30;12.30;;;5.60;99.90;;;;;;4970739;28;20192;-80
2022/01/27 11:16:47;;;;;;;27.70;12.70;;;5.60;99.90;;;;;;4976161;28;20177;-79
2022/01/27 11:21:41;;;;;;;19.17;14.00;;;5.60;99.90;;;;;;4976590;28;20207;-83
2022/01/27 11:24:33;;;;;;;20.45;12.00;;;5.60;99.90;;;;;;4975883;28;20188;-84
2022/01/27 11:27:00;;;;;;;22.88;12.88;;;5.60;99.90;;;;;;4976018;28;20211;-82
2022/01/27 11:29:28;;;;;;;25.52;13.38;;;5.60;99.90;;;;;;5073576;23;20230;-82
2022/01/27 11:32:00;;;;;;;21.48;14.02;;;5.80;99.90;;;;;;4988927;28;20283;-82
2022/01/27 11:34:50;;;;;;;22.60;10.93;;;5.80;99.90;;;;;;4976377;28;20158;-82
2022/01/27 11:37:18;;;;;;;22.85;14.05;;;5.70;99.90;;;;;;4976088;28;20172;-81
2022/01/27 11:39:49;;;;;;;19.02;12.98;;;5.70;99.90;;;;;;4974733;28;20177;-82
2022/01/27 11:42:20;;;;;;;17.83;11.45;;;5.70;99.90;;;;;;4975831;28;20193;-83
2022/01/27 11:44:46;;;;;;;22.33;11.98;;;5.80;99.90;;;;;;4974510;28;20188;-83
2022/01/27 11:47:13;;;;;;;12.18;8.38;;;5.70;99.90;;;;;;4974410;28;20189;-84
2022/01/27 11:49:53;;;;;;;20.25;12.30;;;5.80;99.90;;;;;;4975712;28;20188;-82
2022/01/27 11:52:20;;;;;;;19.88;11.43;;;5.80;99.90;;;;;;4974061;28;20221;-82
2022/01/27 11:54:45;;;;;;;20.75;8.80;;;5.90;99.90;;;;;;4975790;28;20169;-83
2022/01/27 11:57:40;;;;;;;20.90;12.97;;;5.80;99.90;;;;;;4974594;28;20184;-83
2022/01/27 12:00:14;;;;;;;18.67;12.00;;;5.90;99.90;;;;;;4975738;28;20173;-83
2022/01/27 12:03:01;;;;;;;17.70;11.65;;;6.00;99.90;;;;;;4975036;28;20188;-81
2022/01/27 12:05:35;;;;;;;18.75;10.75;;;5.90;99.90;;;;;;4975406;28;20268;-83
2022/01/27 12:08:13;;;;;;;18.63;10.75;;;5.90;99.90;;;;;;4975539;28;20542;-81
2022/01/27 12:10:39;;;;;;;18.50;10.05;;;5.90;99.90;;;;;;4975280;28;20180;-83
2022/01/27 12:13:27;;;;;;;15.33;11.03;;;5.90;99.90;;;;;;4974898;28;20555;-83
2022/01/27 12:16:26;;;;;;;16.45;11.85;;;5.90;99.90;;;;;;4975265;28;20404;-84
2022/01/27 12:19:12;;;;;;;13.20;10.10;;;5.90;99.90;;;;;;4975174;28;20187;-83
2022/01/27 12:21:40;;;;;;;15.98;10.25;;;6.00;99.90;;;;;;4974775;28;20196;-83
2022/01/27 12:24:23;;;;;;;20.90;11.90;;;6.00;99.90;;;;;;4974045;28;20271;-82
2022/01/27 12:26:59;;;;;;;16.88;11.48;;;6.00;99.90;;;;;;4973864;28;20181;-82
2022/01/27 12:29:45;;;;;;;22.17;10.50;;;6.00;99.90;;;;;;4975126;28;20193;-83
2022/01/27 12:32:17;;;;;;;15.48;8.60;;;6.00;99.90;;;;;;4974606;28;20204;-82
2022/01/27 12:34:50;;;;;;;15.05;10.27;;;6.00;99.90;;;;;;4975057;28;20222;-82
2022/01/27 12:37:18;;;;;;;16.45;10.10;;;6.10;99.90;;;;;;4973760;28;20176;-83
2022/01/27 12:39:54;;;;;;;12.95;9.48;;;6.10;99.90;;;;;;4974515;28;20638;-83
2022/01/27 12:42:25;;;;;;;14.05;9.25;;;6.10;99.90;;;;;;4973637;28;20227;-83
2022/01/27 12:45:02;;;;;;;12.70;7.45;;;6.10;99.90;;;;;;4974903;28;20649;-84
2022/01/27 12:47:30;;;;;;;11.73;7.25;;;6.10;99.90;;;;;;4973363;28;20176;-83
2022/01/27 12:50:10;;;;;;;11.27;7.63;;;6.10;99.90;;;;;;4973486;28;20178;-84
2022/01/27 12:52:40;;;;;;;11.18;8.38;;;6.20;99.90;;;;;;4974344;28;20324;-82
2022/01/27 12:55:09;;;;;;;12.63;8.15;;;6.20;99.90;;;;;;4974850;28;20201;-82
2022/01/27 12:57:34;;;;;;;11.15;8.50;;;6.20;99.90;;;;;;4974562;28;20175;-82
2022/01/27 13:00:04;;;;;;;12.40;8.33;;;6.30;99.90;;;;;;4974874;28;20259;-82
2022/01/27 13:02:29;;;;;;;10.43;7.03;;;6.30;99.90;;;;;;4973126;28;20204;-82
2022/01/27 13:04:57;;;;;;;10.47;7.93;;;6.30;99.90;;;;;;4974837;28;20184;-83
2022/01/27 13:07:24;;;;;;;12.00;7.20;;;6.30;99.90;;;;;;4974517;28;20452;-82
2022/01/27 13:10:05;;;;;;;8.13;6.05;;;6.40;99.90;;;;;;4974363;28;20255;-82
2022/01/27 13:12:37;;;;;;;10.52;6.68;;;6.40;99.90;;;;;;4974073;28;20204;-83
2022/01/27 13:17:49;;;;;;;9.50;7.10;;;6.40;99.90;;;;;;4975139;28;20161;-83
2022/01/27 13:20:34;;;;;;;9.13;5.75;;;6.40;99.90;;;;;;4974473;28;20165;-82
2022/01/27 13:23:19;;;;;;;8.82;6.68;;;6.50;99.90;;;;;;4974217;28;20687;-81
2022/01/27 13:25:47;;;;;;;14.02;6.78;;;6.50;99.90;;;;;;4973083;28;20197;-84
2022/01/27 13:28:22;;;;;;;11.82;8.63;;;6.50;99.90;;;;;;4974534;28;20536;-82
2022/01/27 13:30:50;;;;;;;11.05;6.38;;;6.50;99.90;;;;;;4973034;28;20258;-83
2022/01/27 13:33:18;;;;;;;10.88;6.90;;;6.50;99.90;;;;;;4974329;28;20218;-83
2022/01/27 13:35:45;;;;;;;7.60;6.30;;;6.50;99.90;;;;;;4973200;28;20203;-84
2022/01/27 13:38:20;;;;;;;8.68;7.50;;;6.50;99.90;;;;;;4977604;28;20540;-83
2022/01/27 13:43:42;;;;;;;11.35;7.53;;;6.50;99.90;;;;;;4978163;28;20225;-83